Time;durP1;ratioP1;P1;durP2;ratioP2;P2;SDS_P1;SDS_P2;PMS_P1;PMS_P2;Temp;Humidity;BMP_temperature;BMP_pressure;BME280_temperature;BME280_humidity;BME280_pressure;Samples;Min_cycle;Max_cycle;Signal;HPM_P1;HPM_P2
2023/01/15 00:01:41;;;;;;;3.47;0.90;;;;;;;9.13;78.26;97924.38;5030771;28;20053;-77
2023/01/15 00:04:07;;;;;;;7.95;1.55;;;;;;;9.16;78.15;97917.25;5030733;28;20056;-77
2023/01/15 00:06:40;;;;;;;5.28;1.50;;;;;;;9.13;77.98;97920.94;5030672;28;20064;-77
2023/01/15 00:09:08;;;;;;;6.63;0.95;;;;;;;9.14;78.12;97922.59;5031016;28;20424;-77
2023/01/15 00:11:34;;;;;;;4.18;0.90;;;;;;;9.13;78.14;97913.06;5012895;28;20069;-77
2023/01/15 00:14:01;;;;;;;3.22;1.15;;;;;;;9.13;77.96;97926.19;5030081;28;20057;-77
2023/01/15 00:16:27;;;;;;;9.88;1.40;;;;;;;9.12;78.23;97924.50;5030472;28;20305;-77
2023/01/15 00:18:56;;;;;;;3.25;1.08;;;;;;;9.11;77.98;97931.56;5030485;28;20100;-77
2023/01/15 00:21:24;;;;;;;7.25;1.08;;;;;;;9.10;77.77;97929.91;5030829;28;20145;-77
2023/01/15 00:29:23;;;;;;;5.50;1.17;;;;;;;9.10;77.95;97947.44;5034530;28;20136;-77
2023/01/15 00:31:59;;;;;;;9.10;1.10;;;;;;;9.07;77.15;97942.41;5034572;28;20052;-77
2023/01/15 00:34:26;;;;;;;6.53;1.35;;;;;;;9.07;77.92;97935.38;5034340;28;20057;-77
2023/01/15 00:36:53;;;;;;;6.40;1.27;;;;;;;9.07;78.21;97927.53;5034045;28;20486;-77
2023/01/15 00:39:20;;;;;;;8.68;1.10;;;;;;;9.08;78.18;97933.63;5034597;28;20053;-77
2023/01/15 00:41:47;;;;;;;6.70;1.30;;;;;;;9.06;77.69;97931.09;5034163;28;20064;-77
2023/01/15 00:44:13;;;;;;;5.68;1.38;;;;;;;9.05;77.80;97939.91;5034273;28;20077;-77
2023/01/15 00:46:40;;;;;;;9.38;1.77;;;;;;;9.05;77.82;97933.84;5016219;28;20111;-77
2023/01/15 00:49:07;;;;;;;6.70;2.00;;;;;;;9.05;77.52;97931.22;5034140;28;20148;-77
2023/01/15 00:51:34;;;;;;;4.45;1.50;;;;;;;9.03;77.81;97933.13;5116821;22;20057;-82
2023/01/15 00:54:00;;;;;;;6.13;1.20;;;;;;;9.04;77.92;97937.44;5013328;28;20060;-82
2023/01/15 00:56:27;;;;;;;5.28;1.67;;;;;;;9.02;77.36;97940.19;5013200;28;20065;-83
2023/01/15 00:58:54;;;;;;;10.55;1.50;;;;;;;9.02;77.46;97945.44;5012097;28;20057;-82
2023/01/15 01:01:21;;;;;;;6.60;1.50;;;;;;;9.04;77.74;97958.44;5013383;28;20066;-83
2023/01/15 01:03:51;;;;;;;8.25;1.48;;;;;;;9.03;77.70;97956.75;5013501;28;20053;-82
2023/01/15 01:06:20;;;;;;;5.18;1.45;;;;;;;9.03;77.85;97957.59;5011865;28;20508;-82
2023/01/15 01:08:47;;;;;;;9.98;1.70;;;;;;;9.03;77.58;97964.63;5011833;28;20054;-82
2023/01/15 01:11:16;;;;;;;6.85;1.88;;;;;;;9.00;77.32;97952.56;5013328;28;20061;-82
2023/01/15 01:13:44;;;;;;;6.32;1.77;;;;;;;9.01;77.55;97943.75;5012881;28;20049;-82
2023/01/15 01:16:34;;;;;;;8.23;1.63;;;;;;;8.97;75.83;97958.09;5012774;28;20061;-83
2023/01/15 01:19:05;;;;;;;9.32;1.15;;;;;;;9.01;77.11;97958.66;5013091;28;20080;-82
2023/01/15 01:21:32;;;;;;;12.85;1.35;;;;;;;9.02;77.69;97955.09;5013153;28;20072;-82
2023/01/15 01:23:59;;;;;;;8.57;1.65;;;;;;;8.99;77.34;97943.88;5011887;28;20132;-83
2023/01/15 01:26:27;;;;;;;7.07;1.60;;;;;;;8.98;77.07;97950.06;5011571;28;20433;-83
2023/01/15 01:28:54;;;;;;;6.65;1.67;;;;;;;8.98;76.96;97957.94;5012897;28;20088;-82
2023/01/15 01:31:21;;;;;;;7.88;1.40;;;;;;;8.97;76.58;97958.09;5012615;28;20069;-82
2023/01/15 01:33:53;;;;;;;6.05;1.35;;;;;;;8.94;76.04;97958.31;5012633;28;20054;-82
2023/01/15 01:36:26;;;;;;;5.87;1.43;;;;;;;8.93;75.70;97967.97;5012755;28;20061;-82
2023/01/15 01:38:52;;;;;;;9.20;1.83;;;;;;;8.94;76.53;97980.13;5010882;28;20335;-82
2023/01/15 01:41:19;;;;;;;11.65;2.05;;;;;;;8.92;76.41;97997.81;5011235;28;20825;-83
2023/01/15 01:43:51;;;;;;;7.75;1.52;;;;;;;8.89;74.52;97992.78;5012500;28;20049;-82
2023/01/15 01:46:18;;;;;;;6.63;1.50;;;;;;;8.90;76.38;97991.81;5012379;28;20062;-82
2023/01/15 01:48:44;;;;;;;8.35;1.52;;;;;;;8.91;76.41;98001.38;5012586;28;20441;-82
2023/01/15 01:51:11;;;;;;;7.63;1.60;;;;;;;8.92;76.33;97992.56;5012120;28;20119;-82
2023/01/15 01:53:38;;;;;;;6.05;1.38;;;;;;;8.91;76.01;97984.81;5012663;28;20053;-82
2023/01/15 01:56:08;;;;;;;4.50;1.00;;;;;;;8.91;75.50;97996.13;5010939;28;20649;-82
2023/01/15 01:58:34;;;;;;;7.88;1.63;;;;;;;8.91;75.97;97980.41;5012202;28;20416;-82
2023/01/15 02:01:01;;;;;;;9.95;1.83;;;;;;;8.92;75.89;97997.81;5010806;28;20053;-82
2023/01/15 02:03:34;;;;;;;8.75;1.30;;;;;;;8.92;75.56;97981.22;5012417;28;20421;-82
2023/01/15 02:06:03;;;;;;;6.87;1.70;;;;;;;8.94;75.99;97977.50;5012281;28;20495;-82
2023/01/15 02:08:31;;;;;;;10.48;2.00;;;;;;;8.93;75.79;97983.72;5012389;28;20065;-82
2023/01/15 02:10:58;;;;;;;5.80;1.48;;;;;;;8.93;75.60;97973.22;5011981;28;20054;-82
2023/01/15 02:13:38;;;;;;;14.85;1.92;;;;;;;8.90;73.69;97983.13;5011845;28;20054;-83
2023/01/15 02:16:20;;;;;;;6.35;1.30;;;;;;;8.88;72.19;97977.16;5010902;28;20061;-82
2023/01/15 02:18:49;;;;;;;8.70;1.67;;;;;;;8.92;74.86;97976.81;5012061;28;20105;-83
2023/01/15 02:21:32;;;;;;;6.55;1.30;;;;;;;8.89;73.73;97984.09;5011975;28;20064;-82
2023/01/15 02:24:09;;;;;;;4.57;0.93;;;;;;;8.87;72.92;97976.34;5011833;28;20108;-82
2023/01/15 02:26:59;;;;;;;4.57;1.00;;;;;;;8.85;72.53;97976.47;5011730;28;20108;-83
2023/01/15 02:29:46;;;;;;;5.20;1.17;;;;;;;8.83;72.91;97977.53;5006372;28;20061;-83
2023/01/15 02:32:19;;;;;;;3.40;1.00;;;;;;;8.84;75.04;97982.66;5011478;28;20124;-83
2023/01/15 02:34:51;;;;;;;5.90;1.40;;;;;;;8.79;74.69;97990.03;5011831;28;20066;-82
2023/01/15 02:37:24;;;;;;;6.50;1.30;;;;;;;8.73;74.44;97983.50;5011649;28;20064;-83
2023/01/15 02:39:51;;;;;;;;;;;;;;;8.73;72.69;97985.28;5012080;28;20560;-82
2023/01/15 02:42:20;;;;;;;8.25;1.63;;;;;;;8.70;74.32;97986.38;5011531;28;19941;-82
2023/01/15 02:44:51;;;;;;;7.82;1.25;;;;;;;8.68;75.23;97992.69;5011752;28;20061;-82
2023/01/15 02:47:26;;;;;;;6.25;1.70;;;;;;;8.64;74.79;97981.63;5011605;28;20073;-82
2023/01/15 02:49:56;;;;;;;5.63;1.10;;;;;;;8.64;76.09;97984.22;5009214;28;20064;-82
2023/01/15 02:52:34;;;;;;;6.05;1.23;;;;;;;8.59;74.68;97974.09;5009805;28;20516;-82
2023/01/15 02:55:16;;;;;;;10.27;1.52;;;;;;;8.58;74.41;97980.28;5009754;28;20054;-82
2023/01/15 02:57:45;;;;;;;8.77;2.17;;;;;;;8.59;75.95;97975.88;5011204;28;20077;-82
2023/01/15 03:00:15;;;;;;;5.13;1.15;;;;;;;8.58;75.95;97982.06;5011183;28;20061;-82
2023/01/15 03:02:49;;;;;;;5.65;1.25;;;;;;;8.57;76.12;97983.84;5009986;28;20149;-82
2023/01/15 03:05:27;;;;;;;8.80;1.48;;;;;;;8.56;74.97;97974.31;5006400;28;20127;-82
2023/01/15 03:07:59;;;;;;;7.45;1.52;;;;;;;8.56;74.95;97969.06;5003042;28;20049;-82
2023/01/15 03:11:09;;;;;;;4.72;1.33;;;;;;;8.53;72.92;97976.34;5011107;28;20058;-82
2023/01/15 03:13:42;;;;;;;9.38;1.65;;;;;;;8.55;75.21;97971.81;4986520;28;20065;-82
2023/01/15 03:19:39;;;;;;;5.75;1.10;;;;;;;8.48;72.94;97961.78;5010830;28;20064;-82
2023/01/15 03:22:09;;;;;;;8.38;1.42;;;;;;;8.51;74.74;97965.94;4914898;29;20532;-82
2023/01/15 03:24:45;;;;;;;4.22;1.38;;;;;;;8.47;74.22;97960.13;4999913;28;20058;-82
2023/01/15 03:27:12;;;;;;;5.40;1.63;;;;;;;8.50;75.88;97947.69;5009524;28;20057;-81
2023/01/15 03:29:43;;;;;;;12.10;2.13;;;;;;;8.44;73.99;97949.84;5010542;28;20057;-82
2023/01/15 03:32:10;;;;;;;7.35;1.40;;;;;;;8.46;75.64;97958.44;5010799;28;20057;-82
2023/01/15 03:34:47;;;;;;;6.05;1.42;;;;;;;8.42;73.99;97959.63;5010327;28;20463;-82
2023/01/15 03:37:14;;;;;;;8.30;1.67;;;;;;;8.43;75.52;97950.81;5009257;28;20064;-81
2023/01/15 03:39:41;;;;;;;5.50;1.85;;;;;;;8.42;75.66;97933.44;5010665;28;20072;-82
2023/01/15 03:42:26;;;;;;;5.50;1.27;;;;;;;8.39;74.17;97941.53;5010471;28;20054;-81
2023/01/15 03:45:18;;;;;;;10.55;1.65;;;;;;;8.36;72.90;97936.50;5010522;28;20053;-82
2023/01/15 03:47:50;;;;;;;8.15;1.20;;;;;;;8.35;74.40;97921.72;5010359;28;20526;-82
2023/01/15 03:50:31;;;;;;;4.57;1.40;;;;;;;8.32;73.12;97932.44;5010404;28;20149;-82
2023/01/15 03:53:22;;;;;;;3.83;1.10;;;;;;;8.31;72.91;97931.63;5010089;28;20054;-82
2023/01/15 03:56:10;;;;;;;5.68;1.45;;;;;;;8.30;73.37;97939.63;5010566;28;20056;-82
2023/01/15 03:58:43;;;;;;;5.20;1.30;;;;;;;8.33;75.22;97934.09;5010227;28;20050;-82
2023/01/15 04:01:14;;;;;;;6.82;1.70;;;;;;;8.29;74.55;97932.69;5008791;28;20428;-82
2023/01/15 04:03:42;;;;;;;4.93;1.38;;;;;;;8.29;75.17;97937.91;5010283;28;20054;-81
2023/01/15 04:06:10;;;;;;;11.38;1.50;;;;;;;8.27;75.40;97940.69;5008931;28;20065;-82
2023/01/15 04:08:39;;;;;;;14.52;1.60;;;;;;;8.24;75.06;97946.16;5010348;28;20054;-82
2023/01/15 04:11:06;;;;;;;8.50;1.38;;;;;;;8.26;75.52;97935.56;5008929;28;20551;-82
2023/01/15 04:13:32;;;;;;;6.45;1.20;;;;;;;8.27;75.50;97938.06;5008980;28;20061;-82
2023/01/15 04:15:59;;;;;;;10.18;1.88;;;;;;;8.27;75.49;97934.59;5009986;28;20489;-82
2023/01/15 04:18:26;;;;;;;8.20;1.77;;;;;;;8.28;75.12;97931.00;5010092;28;20156;-81
2023/01/15 04:20:54;;;;;;;8.32;1.67;;;;;;;8.28;75.09;97937.09;5010179;28;20068;-82
2023/01/15 04:23:21;;;;;;;7.72;1.83;;;;;;;8.28;74.89;97928.41;5010133;28;20058;-81
2023/01/15 04:25:48;;;;;;;9.00;2.22;;;;;;;8.28;74.87;97916.13;5008728;28;20057;-82
2023/01/15 04:28:14;;;;;;;10.93;1.80;;;;;;;8.28;75.03;97938.88;5010350;28;20053;-81
2023/01/15 04:30:42;;;;;;;5.57;1.42;;;;;;;8.25;74.87;97926.84;5008827;28;20085;-81
2023/01/15 04:33:09;;;;;;;7.40;1.30;;;;;;;8.25;75.10;97934.72;5010169;28;20550;-81
2023/01/15 04:35:36;;;;;;;5.20;1.25;;;;;;;8.23;74.57;97946.28;5009917;28;20492;-81
2023/01/15 04:38:03;;;;;;;6.13;1.60;;;;;;;8.21;74.94;97935.91;5010027;28;20058;-81
2023/01/15 04:45:59;;;;;;;9.05;1.15;;;;;;;8.15;74.46;97937.19;5009803;28;20061;-81
2023/01/15 04:48:26;;;;;;;8.48;1.92;;;;;;;8.14;74.73;97932.06;5009988;28;20108;-81
2023/01/15 04:50:53;;;;;;;7.80;1.58;;;;;;;8.11;74.54;97950.66;5009913;28;20112;-81
2023/01/15 04:53:20;;;;;;;8.18;1.77;;;;;;;8.06;74.30;97932.66;5008583;28;20054;-81
2023/01/15 04:55:46;;;;;;;13.90;1.88;;;;;;;8.07;74.77;97935.16;5009624;28;20495;-81
2023/01/15 04:58:13;;;;;;;7.20;2.03;;;;;;;8.04;73.89;97939.81;5009829;28;20069;-81
2023/01/15 05:00:39;;;;;;;8.57;1.48;;;;;;;8.03;74.24;97943.38;5008687;28;20058;-81
2023/01/15 05:03:06;;;;;;;4.07;1.27;;;;;;;8.02;74.38;97934.69;5008611;28;20058;-82
2023/01/15 05:05:32;;;;;;;7.30;1.30;;;;;;;8.02;74.13;97933.84;5009760;28;20061;-81
2023/01/15 05:07:59;;;;;;;9.63;1.45;;;;;;;8.00;73.91;97938.38;5010416;28;20085;-80
2023/01/15 05:10:25;;;;;;;10.38;2.35;;;;;;;7.95;73.27;97946.56;5008384;28;20089;-81
2023/01/15 05:12:51;;;;;;;8.02;1.75;;;;;;;7.97;74.33;97935.97;5009909;28;20065;-81
2023/01/15 05:15:18;;;;;;;8.05;1.95;;;;;;;7.95;74.09;97936.94;5011600;28;20421;-81
2023/01/15 05:17:44;;;;;;;7.20;1.92;;;;;;;7.92;74.06;97926.69;5013029;28;20062;-81
2023/01/15 05:20:11;;;;;;;10.00;1.40;;;;;;;7.93;73.92;97925.72;5013005;28;20068;-81
2023/01/15 05:22:38;;;;;;;10.18;2.03;;;;;;;7.92;74.21;97934.53;5011793;28;20064;-81
2023/01/15 05:25:05;;;;;;;9.95;2.00;;;;;;;7.91;74.09;97930.25;5013134;28;20045;-81
2023/01/15 05:27:31;;;;;;;11.15;1.80;;;;;;;7.89;73.88;97937.38;5012930;28;20523;-81
2023/01/15 05:29:57;;;;;;;8.48;1.73;;;;;;;7.90;73.96;97949.56;5012863;28;20137;-81
2023/01/15 05:32:24;;;;;;;7.72;1.63;;;;;;;7.89;74.11;97942.63;5012913;28;20127;-81
2023/01/15 05:34:50;;;;;;;10.05;2.20;;;;;;;7.91;74.05;97947.75;5012523;28;20578;-81
2023/01/15 05:37:17;;;;;;;8.38;1.83;;;;;;;7.89;73.99;97932.16;5011251;28;20511;-81
2023/01/15 05:39:43;;;;;;;4.78;1.75;;;;;;;7.87;74.12;97952.41;5011482;28;20060;-81
2023/01/15 05:42:10;;;;;;;9.45;1.95;;;;;;;7.89;74.42;97947.06;5011446;28;20065;-81
2023/01/15 05:44:36;;;;;;;5.85;1.70;;;;;;;7.86;74.44;97949.91;5012759;28;20061;-82
2023/01/15 05:47:04;;;;;;;12.90;2.00;;;;;;;7.86;74.38;97942.88;5012156;28;20068;-81
2023/01/15 05:49:31;;;;;;;9.55;1.77;;;;;;;7.87;74.23;97939.31;5012628;28;20061;-81
2023/01/15 05:51:59;;;;;;;8.30;1.60;;;;;;;7.87;74.63;97925.34;5011903;28;20060;-81
2023/01/15 05:54:31;;;;;;;9.43;1.80;;;;;;;7.88;73.32;97938.34;5012175;28;20136;-81
2023/01/15 05:56:58;;;;;;;5.43;1.02;;;;;;;7.91;74.16;97945.97;5012407;28;20712;-81
2023/01/15 05:59:27;;;;;;;7.40;1.55;;;;;;;7.90;74.37;97941.69;5012312;28;20512;-81
2023/01/15 06:01:54;;;;;;;9.52;1.98;;;;;;;7.90;74.34;97936.47;5012014;28;20136;-81
2023/01/15 06:04:21;;;;;;;7.72;1.95;;;;;;;7.90;73.95;97938.22;5011001;28;20058;-81
2023/01/15 06:06:53;;;;;;;5.47;1.38;;;;;;;7.88;72.62;97935.72;5010055;28;20065;-81
2023/01/15 06:09:21;;;;;;;5.78;2.03;;;;;;;7.88;73.40;97933.09;5012212;28;20113;-81
2023/01/15 06:11:48;;;;;;;8.23;1.85;;;;;;;7.90;74.03;97933.84;5011718;28;20393;-81
2023/01/15 06:14:15;;;;;;;6.40;1.50;;;;;;;7.91;74.14;97945.97;5012055;28;20050;-82
2023/01/15 06:16:41;;;;;;;10.05;1.83;;;;;;;7.90;74.04;97941.69;5011760;28;20054;-81
2023/01/15 06:19:10;;;;;;;8.32;1.30;;;;;;;7.91;73.42;97940.75;5010698;28;20060;-82
2023/01/15 06:21:37;;;;;;;9.00;1.80;;;;;;;7.92;74.18;97942.41;5011630;28;20054;-81
2023/01/15 06:24:04;;;;;;;15.73;2.67;;;;;;;7.93;74.39;97940.63;5011811;28;20065;-81
2023/01/15 06:26:31;;;;;;;8.05;1.58;;;;;;;7.93;74.15;97954.53;5010477;28;20064;-82
2023/01/15 06:28:57;;;;;;;6.40;1.60;;;;;;;7.92;73.66;97936.31;5010593;28;20050;-82
2023/01/15 06:31:27;;;;;;;9.00;1.88;;;;;;;7.92;74.06;97931.06;5008414;28;20128;-81
2023/01/15 06:33:54;;;;;;;9.80;1.60;;;;;;;7.92;74.12;97937.16;5003108;28;20053;-82
2023/01/15 06:36:22;;;;;;;11.15;1.73;;;;;;;7.91;73.03;97938.13;5003391;28;20062;-81
2023/01/15 06:38:49;;;;;;;8.65;1.80;;;;;;;7.91;73.37;97926.78;5011032;28;20057;-82
2023/01/15 06:49:36;;;;;;;12.10;2.35;;;;;;;7.89;73.23;97905.94;4992039;28;20065;-81
2023/01/15 06:52:03;;;;;;;12.73;2.00;;;;;;;7.90;73.85;97914.66;5100090;22;20040;-78
2023/01/15 06:54:54;;;;;;;7.45;1.92;;;;;;;7.90;73.30;97922.50;5036421;22;20128;-79
2023/01/15 06:57:21;;;;;;;8.32;1.83;;;;;;;7.90;73.84;97927.75;5027930;28;20100;-79
2023/01/15 06:59:48;;;;;;;10.23;2.35;;;;;;;7.88;73.67;97922.63;5023770;28;20457;-78
2023/01/15 07:02:16;;;;;;;11.65;2.35;;;;;;;7.89;74.11;97937.38;5026416;28;20057;-78
2023/01/15 07:04:43;;;;;;;12.32;2.00;;;;;;;7.87;73.55;97941.91;5030633;28;20049;-78
2023/01/15 07:07:10;;;;;;;7.03;2.10;;;;;;;7.88;73.78;97947.97;5030626;28;20051;-78
2023/01/15 07:09:36;;;;;;;10.52;2.42;;;;;;;7.88;73.42;97938.34;5030593;28;20107;-77
2023/01/15 07:12:03;;;;;;;14.18;2.25;;;;;;;7.89;73.29;97941.81;5028865;28;20501;-77
2023/01/15 07:14:30;;;;;;;6.72;1.90;;;;;;;7.87;73.01;97939.31;5029035;28;20103;-77
2023/01/15 07:16:58;;;;;;;8.57;2.05;;;;;;;7.88;73.32;97935.72;5025054;28;20046;-78
2023/01/15 07:19:26;;;;;;;6.15;1.88;;;;;;;7.88;72.74;97955.84;5026705;28;20053;-79
2023/01/15 07:21:52;;;;;;;10.10;2.15;;;;;;;7.88;72.97;97929.63;5030471;28;20453;-78
2023/01/15 07:24:18;;;;;;;7.35;1.70;;;;;;;7.89;73.37;97928.72;5030777;28;20092;-78
2023/01/15 07:26:45;;;;;;;11.90;2.38;;;;;;;7.89;73.03;97933.94;5030572;28;20057;-78
2023/01/15 07:29:12;;;;;;;13.60;2.15;;;;;;;7.88;72.49;97951.44;5030801;28;20521;-77
2023/01/15 07:31:39;;;;;;;13.27;2.33;;;;;;;7.87;73.05;97931.44;5028193;28;20453;-77
2023/01/15 07:34:06;;;;;;;8.60;1.67;;;;;;;7.87;72.42;97914.88;5027999;28;20144;-77
2023/01/15 07:36:33;;;;;;;12.32;2.70;;;;;;;7.87;72.36;97941.06;5023098;28;20049;-77
2023/01/15 07:38:59;;;;;;;9.18;2.35;;;;;;;7.87;72.59;97941.91;5029784;28;20111;-78
2023/01/15 07:49:45;;;;;;;7.43;1.98;;;;;;;7.86;71.84;97932.41;5029792;28;20103;-77
2023/01/15 07:52:16;;;;;;;11.02;2.28;;;;;;;7.88;72.24;97951.44;5030217;28;20192;-76
2023/01/15 07:54:44;;;;;;;11.10;2.25;;;;;;;7.87;72.14;97941.06;5030005;28;20767;-77
2023/01/15 07:57:13;;;;;;;10.15;2.50;;;;;;;7.86;72.22;97944.66;5012558;28;20057;-77
2023/01/15 07:59:40;;;;;;;12.98;2.67;;;;;;;7.84;72.10;97934.28;5029914;28;20088;-77
2023/01/15 08:02:06;;;;;;;9.00;1.73;;;;;;;7.81;70.69;97944.97;5030545;28;20063;-77
2023/01/15 08:04:33;;;;;;;13.40;2.85;;;;;;;7.83;72.55;97948.34;5030318;28;20061;-77
2023/01/15 08:07:02;;;;;;;10.40;2.20;;;;;;;7.83;72.15;97956.19;5030063;28;20564;-76
2023/01/15 08:09:29;;;;;;;9.70;2.15;;;;;;;7.85;72.29;97954.28;5012546;28;20579;-77
2023/01/15 08:17:28;;;;;;;7.15;1.88;;;;;;;7.86;72.26;97937.63;5029513;28;20064;-77
2023/01/15 08:19:56;;;;;;;9.90;1.83;;;;;;;7.83;71.54;97971.91;5022949;28;20058;-77
2023/01/15 08:22:23;;;;;;;11.82;2.15;;;;;;;7.81;72.18;97942.38;5020926;28;20045;-77
2023/01/15 08:24:51;;;;;;;8.20;2.10;;;;;;;7.81;72.32;97939.75;5021105;28;20053;-77
2023/01/15 08:27:17;;;;;;;6.95;1.55;;;;;;;7.81;71.23;97952.84;5011987;28;20061;-77
2023/01/15 08:29:44;;;;;;;8.82;1.85;;;;;;;7.77;71.29;97948.78;5029735;28;20058;-77
2023/01/15 08:32:11;;;;;;;11.85;2.22;;;;;;;7.77;72.02;97946.16;5028965;28;20061;-76
2023/01/15 08:34:38;;;;;;;10.27;1.65;;;;;;;7.79;72.94;97946.91;5009945;28;20054;-77
2023/01/15 08:37:04;;;;;;;10.73;1.83;;;;;;;7.80;72.36;97953.81;5009723;28;20077;-77
2023/01/15 08:39:32;;;;;;;8.15;2.00;;;;;;;7.79;72.19;97950.38;5010823;28;20560;-77
2023/01/15 08:41:59;;;;;;;7.32;1.88;;;;;;;7.82;71.91;97951.91;5011567;28;20564;-77
2023/01/15 08:44:26;;;;;;;10.45;2.38;;;;;;;7.79;71.28;97962.63;5029623;28;20054;-77
2023/01/15 08:46:53;;;;;;;15.18;2.33;;;;;;;7.80;71.73;97953.81;5029453;28;20054;-77
2023/01/15 08:49:20;;;;;;;16.45;2.60;;;;;;;7.77;70.57;97974.97;5032216;28;20061;-77
2023/01/15 08:51:50;;;;;;;7.18;1.77;;;;;;;7.79;70.85;97950.38;5033426;28;20062;-76
2023/01/15 08:54:19;;;;;;;14.63;2.65;;;;;;;7.78;68.28;97953.91;5033232;28;20092;-77
2023/01/15 08:56:46;;;;;;;9.60;2.22;;;;;;;7.78;70.00;97938.19;5032759;28;20490;-76
2023/01/15 08:59:12;;;;;;;8.75;2.08;;;;;;;7.81;70.80;97934.50;5032949;28;20061;-78
2023/01/15 09:01:41;;;;;;;13.05;2.10;;;;;;;7.82;70.67;97934.41;5033372;28;20069;-78
2023/01/15 09:04:12;;;;;;;8.07;1.92;;;;;;;7.82;70.60;97946.69;5032948;28;20045;-77
2023/01/15 09:06:39;;;;;;;10.77;2.63;;;;;;;7.82;71.22;97952.72;5014810;28;20054;-77
2023/01/15 09:09:06;;;;;;;11.27;2.30;;;;;;;7.82;70.90;97941.44;5015249;28;20107;-77
2023/01/15 09:11:32;;;;;;;17.30;2.65;;;;;;;7.82;70.99;97951.91;5033188;28;20107;-77
2023/01/15 09:13:59;;;;;;;8.63;2.40;;;;;;;7.80;70.42;97936.31;5032887;28;20053;-78
2023/01/15 09:16:26;;;;;;;9.70;1.88;;;;;;;7.81;69.85;97963.31;5033078;28;20053;-76
2023/01/15 09:18:53;;;;;;;9.65;2.28;;;;;;;7.82;70.99;97952.72;5032857;28;20053;-77
2023/01/15 09:21:20;;;;;;;6.95;1.95;;;;;;;7.84;70.71;97965.72;5015048;28;20111;-77
2023/01/15 09:23:46;;;;;;;5.30;1.85;;;;;;;7.84;70.59;97957.84;5032894;28;20107;-77
2023/01/15 09:26:27;;;;;;;13.18;1.92;;;;;;;7.78;65.91;97967.00;5032541;28;20076;-78
2023/01/15 09:28:54;;;;;;;13.18;1.90;;;;;;;7.83;70.09;97948.34;5032979;28;20061;-77
2023/01/15 09:31:23;;;;;;;8.55;2.63;;;;;;;7.84;70.38;97963.09;5032728;28;20060;-78
2023/01/15 09:33:49;;;;;;;6.85;2.17;;;;;;;7.86;70.85;97968.22;5013882;28;20057;-78
2023/01/15 09:36:19;;;;;;;13.00;2.50;;;;;;;7.83;69.97;97971.91;5031298;28;20045;-78
2023/01/15 09:38:45;;;;;;;8.07;1.92;;;;;;;7.85;70.44;97962.16;5024579;28;20079;-78
2023/01/15 09:44:13;;;;;;;7.15;1.83;;;;;;;7.84;67.31;97960.47;5030756;28;20061;-78
2023/01/15 09:47:03;;;;;;;7.28;1.83;;;;;;;7.86;65.61;97976.09;5032491;28;20061;-79
2023/01/15 09:50:06;;;;;;;9.68;2.33;;;;;;;7.89;68.22;97958.34;5032625;28;20127;-77
2023/01/15 09:52:51;;;;;;;8.20;1.77;;;;;;;7.93;69.24;97959.78;5027252;28;20054;-78
2023/01/15 09:55:23;;;;;;;9.30;2.08;;;;;;;7.94;69.05;97953.63;5027398;28;20053;-77
2023/01/15 09:57:54;;;;;;;8.17;2.23;;;;;;;7.93;67.68;97949.31;5032092;28;20067;-78
2023/01/15 10:00:23;;;;;;;7.72;1.88;;;;;;;7.97;69.24;97944.69;5031682;28;20068;-78
2023/01/15 10:02:57;;;;;;;10.10;2.28;;;;;;;7.97;65.25;97944.69;5032173;28;20548;-77
2023/01/15 10:05:30;;;;;;;12.25;2.40;;;;;;;8.00;68.09;97943.63;5032354;28;20058;-78
2023/01/15 10:08:04;;;;;;;8.70;1.80;;;;;;;7.99;63.09;97961.13;5032395;28;20061;-78
2023/01/15 10:10:40;;;;;;;9.73;2.92;;;;;;;8.04;66.62;97963.41;5032215;28;20687;-78
2023/01/15 10:13:15;;;;;;;6.15;1.60;;;;;;;8.07;68.03;97955.28;5032673;28;20049;-77
2023/01/15 10:15:46;;;;;;;8.15;1.55;;;;;;;8.06;65.86;97956.25;5031752;28;20486;-77
2023/01/15 10:18:24;;;;;;;6.70;1.73;;;;;;;8.09;65.22;97958.63;5032084;28;20068;-77
2023/01/15 10:21:10;;;;;;;9.88;1.70;;;;;;;8.04;63.24;97972.06;5029708;28;20084;-77
2023/01/15 10:23:39;;;;;;;10.50;1.92;;;;;;;8.12;67.03;97968.06;5021523;28;20569;-78
2023/01/15 10:26:25;;;;;;;10.48;2.47;;;;;;;8.16;68.40;97967.72;5031288;28;20111;-78
2023/01/15 10:28:56;;;;;;;7.90;1.73;;;;;;;8.13;61.14;97948.75;4994256;28;20473;-77
2023/01/15 10:31:36;;;;;;;8.07;1.58;;;;;;;8.15;62.99;97958.16;5011215;28;20057;-78
2023/01/15 10:34:37;;;;;;;4.93;1.40;;;;;;;8.19;62.09;97946.50;5010561;28;20054;-78
2023/01/15 10:37:23;;;;;;;9.20;1.73;;;;;;;8.22;60.46;97958.53;5011519;28;20070;-78
2023/01/15 10:40:08;;;;;;;9.82;1.42;;;;;;;8.24;59.52;97956.63;5015409;28;20112;-77
2023/01/15 10:42:51;;;;;;;11.98;2.67;;;;;;;8.30;61.60;97957.97;5007636;28;20049;-77
2023/01/15 10:45:35;;;;;;;9.20;1.73;;;;;;;8.31;60.36;97957.84;5023285;28;20061;-78
2023/01/15 10:48:14;;;;;;;12.68;2.67;;;;;;;8.36;62.71;97965.34;5031454;28;20053;-78
2023/01/15 10:50:41;;;;;;;8.25;1.65;;;;;;;8.41;65.50;97957.94;5031580;28;20583;-78
2023/01/15 10:53:46;;;;;;;8.25;1.55;;;;;;;8.41;60.18;97984.16;5031261;28;20057;-78
2023/01/15 10:56:28;;;;;;;7.45;1.70;;;;;;;8.43;63.05;97976.19;5030952;28;20505;-77
2023/01/15 10:59:22;;;;;;;8.38;1.98;;;;;;;8.41;59.79;98002.53;5031157;28;20061;-79
2023/01/15 11:01:52;;;;;;;9.93;2.05;;;;;;;8.42;62.85;97975.38;5031427;28;20115;-78
2023/01/15 11:04:20;;;;;;;8.57;1.70;;;;;;;8.42;65.30;97970.13;5030977;28;20510;-78
2023/01/15 11:06:46;;;;;;;3.58;1.23;;;;;;;8.42;65.71;97950.94;5030693;28;20057;-78
2023/01/15 11:09:23;;;;;;;5.82;1.52;;;;;;;8.38;62.92;97947.72;5031022;28;20050;-77
2023/01/15 11:20:37;;;;;;;8.07;1.55;;;;;;;8.38;64.89;97942.47;5011292;28;20058;-77
2023/01/15 11:23:12;;;;;;;9.48;2.17;;;;;;;8.38;63.09;97950.34;5011653;28;20050;-78
2023/01/15 11:25:49;;;;;;;6.30;1.75;;;;;;;8.43;63.36;97939.47;5011116;28;20050;-78
2023/01/15 11:28:17;;;;;;;7.40;1.40;;;;;;;8.53;66.88;97940.50;5011191;28;20507;-77
2023/01/15 11:30:53;;;;;;;8.60;1.83;;;;;;;8.56;62.93;97944.66;5011167;28;20501;-79
2023/01/15 11:33:24;;;;;;;9.52;1.77;;;;;;;8.63;65.19;97943.19;5011050;28;20422;-77
2023/01/15 11:35:57;;;;;;;7.30;1.50;;;;;;;8.67;65.77;97985.78;5010810;28;20054;-78
2023/01/15 11:38:25;;;;;;;9.35;1.77;;;;;;;8.62;63.16;97938.91;5010677;28;20073;-78
2023/01/15 11:40:58;;;;;;;5.75;1.40;;;;;;;8.64;63.30;97958.00;5010640;28;20065;-78
2023/01/15 11:52:15;;;;;;;8.38;1.23;;;;;;;8.64;63.48;97918.66;5010811;28;20057;-78
2023/01/15 11:54:46;;;;;;;9.05;1.55;;;;;;;8.63;64.40;97945.81;5010732;28;20054;-78
2023/01/15 11:57:26;;;;;;;10.23;1.83;;;;;;;8.56;60.11;97939.41;5010158;28;20069;-78
2023/01/15 11:59:53;;;;;;;10.07;1.70;;;;;;;8.55;63.91;97949.06;4992690;28;20141;-78
2023/01/15 12:02:28;;;;;;;10.65;1.92;;;;;;;8.54;64.65;97964.91;5010286;28;20268;-78
2023/01/15 12:04:59;;;;;;;11.05;1.77;;;;;;;8.50;62.96;97943.31;5010736;28;20050;-78
2023/01/15 12:07:25;;;;;;;8.75;1.83;;;;;;;8.48;63.32;97921.59;5010299;28;20514;-78
2023/01/15 12:10:20;;;;;;;9.50;1.60;;;;;;;8.46;61.08;97932.19;5008936;28;20062;-78
2023/01/15 12:13:03;;;;;;;10.02;1.75;;;;;;;8.42;60.54;97954.41;5009033;28;20112;-78
2023/01/15 12:16:02;;;;;;;11.73;1.45;;;;;;;8.45;64.33;97933.16;5009114;28;20065;-77
2023/01/15 12:18:50;;;;;;;8.18;1.98;;;;;;;8.42;59.77;97920.31;4986168;28;20049;-77
2023/01/15 12:21:38;;;;;;;8.77;1.92;;;;;;;8.50;61.41;97924.09;5009165;28;20054;-78
2023/01/15 12:24:15;;;;;;;8.57;1.92;;;;;;;8.58;60.31;97929.63;4996241;28;20384;-79
2023/01/15 12:26:56;;;;;;;12.63;2.50;;;;;;;8.76;61.03;97916.84;5014179;28;20046;-77
2023/01/15 12:29:34;;;;;;;7.43;1.88;;;;;;;8.95;63.88;97921.47;4997016;28;20112;-77
2023/01/15 12:32:06;;;;;;;8.60;1.80;;;;;;;9.09;64.19;97917.72;4996845;28;20494;-78
2023/01/15 12:34:36;;;;;;;10.73;2.00;;;;;;;9.15;62.71;97912.94;5013937;28;20062;-78
2023/01/15 12:37:14;;;;;;;6.07;1.55;;;;;;;9.15;59.87;97919.00;5013561;28;20054;-78
2023/01/15 12:39:46;;;;;;;8.80;1.48;;;;;;;9.19;62.66;97927.50;4995456;28;20068;-77
2023/01/15 12:45:10;;;;;;;7.28;1.85;;;;;;;9.24;62.32;97905.13;5012523;28;20066;-77
2023/01/15 12:47:48;;;;;;;4.82;1.45;;;;;;;9.17;58.82;97906.63;5012679;28;20058;-77
2023/01/15 12:50:34;;;;;;;4.72;1.15;;;;;;;9.17;63.00;97932.88;5012697;28;20069;-78
2023/01/15 12:55:47;;;;;;;12.90;1.77;;;;;;;9.04;60.99;97919.06;5064572;22;20049;-81
2023/01/15 12:58:37;;;;;;;12.02;2.17;;;;;;;8.93;58.85;97899.75;5031706;28;20084;-81
2023/01/15 13:01:13;;;;;;;3.28;1.10;;;;;;;8.92;59.91;97921.72;4986638;28;20061;-81